Twodot, Montana
Current Conditions -  °F | °C
As of 2:54 AM on Sunday 25 Jan 2015 (Local Time) from KLWT Reporting Station
Clear Clear  
Wind Chill: 31°   Ceiling: Unl
Heat Index: 39°   Visibility: 10mi
Dew Point: 32°   Wind: 15mph
Humidity: 76%   Direction: 220°SW
Pressure: 30.04"   Gusts: NA
Location:  46.42°N, 110.07°W
Report Text: KLWT 250954Z AUTO 22013KT 10SM CLR 04/00 A3004 RMK AO2 SLP189 T00390000
Loading
Personal Weather Stations






























Interactive Weather Map New forecast layout! Learn more

10-Day Weather Forecast

Advertisements
Track Severe Weather on mobile